Time;durP1;ratioP1;P1;durP2;ratioP2;P2;SDS_P1;SDS_P2;PMS_P1;PMS_P2;Temp;Humidity;BMP_temperature;BMP_pressure;BME280_temperature;BME280_humidity;BME280_pressure;Samples;Min_cycle;Max_cycle;Signal;HPM_P1;HPM_P2
2021/12/25 00:00:15;;;;;;;18.48;12.48;;;;;;;4.15;100.00;100351.28;5089714;28;20027;-89
2021/12/25 00:02:41;;;;;;;21.90;13.65;;;;;;;4.08;100.00;100344.47;5094461;28;20020;-89
2021/12/25 00:05:08;;;;;;;21.67;12.65;;;;;;;4.08;100.00;100349.75;5109022;28;20146;-90
2021/12/25 00:07:33;;;;;;;19.45;12.48;;;;;;;4.08;100.00;100353.22;5090873;28;20051;-90
2021/12/25 00:10:00;;;;;;;18.05;12.23;;;;;;;4.03;100.00;100343.75;5089605;28;20032;-89
2021/12/25 00:12:25;;;;;;;18.95;12.52;;;;;;;4.00;100.00;100336.81;5089230;28;20385;-89
2021/12/25 00:14:51;;;;;;;22.00;13.77;;;;;;;4.02;100.00;100342.03;5089874;28;20095;-89
2021/12/25 00:17:16;;;;;;;19.73;12.45;;;;;;;3.95;100.00;100329.06;5089911;28;20063;-89
2021/12/25 00:19:43;;;;;;;21.80;13.48;;;;;;;3.95;100.00;100331.69;5106225;28;20049;-89
2021/12/25 00:22:08;;;;;;;23.33;13.60;;;;;;;4.02;100.00;100342.91;5109702;28;20027;-89
2021/12/25 00:24:33;;;;;;;25.73;13.98;;;;;;;4.02;100.00;100348.16;5109064;28;20024;-88
2021/12/25 00:27:06;;;;;;;22.60;14.00;;;;;;;4.01;100.00;100338.53;5107349;28;20646;-89
2021/12/25 00:34:36;;;;;;;22.92;13.98;;;;;;;4.00;100.00;100328.91;5095886;28;20047;-89
2021/12/25 00:37:03;;;;;;;24.38;14.48;;;;;;;3.99;100.00;100332.47;5105477;28;20023;-89
2021/12/25 00:39:30;;;;;;;25.75;15.23;;;;;;;3.95;100.00;100323.78;5109615;28;20515;-89
2021/12/25 00:42:01;;;;;;;26.63;15.63;;;;;;;3.99;100.00;100327.19;5107306;28;20512;-89
2021/12/25 00:44:28;;;;;;;23.20;14.55;;;;;;;3.97;100.00;100324.63;5106727;28;20027;-89
2021/12/25 00:46:53;;;;;;;27.35;14.85;;;;;;;3.93;100.00;100324.75;5105764;27;20027;-89
2021/12/25 00:49:18;;;;;;;24.60;14.45;;;;;;;3.94;100.00;100329.13;5103571;28;20245;-89
2021/12/25 00:51:44;;;;;;;25.05;15.10;;;;;;;3.89;100.00;100326.63;5107919;28;20016;-89
2021/12/25 00:54:10;;;;;;;23.95;15.15;;;;;;;3.95;100.00;100338.72;5102913;28;20024;-89
2021/12/25 00:56:36;;;;;;;25.40;15.05;;;;;;;3.96;100.00;100340.44;5101560;28;20075;-89
2021/12/25 00:59:01;;;;;;;24.48;15.45;;;;;;;3.94;100.00;100331.75;5107349;28;20094;-89
2021/12/25 01:01:27;;;;;;;23.40;15.18;;;;;;;3.94;100.00;100340.50;5097537;28;20107;-90
2021/12/25 01:03:52;;;;;;;29.00;16.17;;;;;;;3.87;100.00;100319.69;5101710;28;20077;-89
2021/12/25 01:06:18;;;;;;;27.40;15.18;;;;;;;3.91;100.00;100330.06;5104486;28;20031;-89
2021/12/25 01:08:43;;;;;;;24.45;16.15;;;;;;;3.86;100.00;100317.97;5108720;28;20039;-90
2021/12/25 01:11:08;;;;;;;26.75;16.85;;;;;;;3.89;100.00;100325.78;5107330;28;20459;-90
2021/12/25 01:13:39;;;;;;;30.23;17.52;;;;;;;3.87;100.00;100320.53;5109169;28;20032;-89
2021/12/25 01:24:30;;;;;;;34.60;19.40;;;;;;;3.91;100.00;100326.56;5108424;28;20546;-90
2021/12/25 01:27:26;;;;;;;35.25;19.75;;;;;;;3.90;100.00;100319.59;5105662;28;20032;-90
2021/12/25 01:48:00;;;;;;;;;;;;;;;3.85;100.00;100330.28;5088380;28;20054;-90
2021/12/25 01:50:27;;;;;;;37.00;21.73;;;;;;;3.81;100.00;100331.28;5088269;28;20522;-90
2021/12/25 01:52:54;;;;;;;39.50;22.02;;;;;;;3.80;100.00;100328.69;5087886;28;20055;-90
2021/12/25 01:55:24;;;;;;;40.45;21.92;;;;;;;3.70;100.00;100317.59;5088027;28;20024;-90
2021/12/25 01:57:50;;;;;;;40.97;22.55;;;;;;;3.75;100.00;100323.56;5088092;28;20027;-90
2021/12/25 02:00:24;;;;;;;43.70;23.83;;;;;;;3.76;100.00;100322.63;5086207;28;20028;-90
2021/12/25 02:02:50;;;;;;;44.53;24.52;;;;;;;3.74;100.00;100327.97;5105771;28;20156;-90
2021/12/25 02:05:16;;;;;;;45.60;24.20;;;;;;;3.73;100.00;100322.75;5102998;28;20033;-90
2021/12/25 02:07:41;;;;;;;49.75;26.60;;;;;;;3.65;100.00;100314.25;5099758;28;20028;-90
2021/12/25 02:10:07;;;;;;;48.08;25.88;;;;;;;3.69;100.00;100315.88;5107359;28;20088;-90
2021/12/25 02:12:34;;;;;;;50.40;26.48;;;;;;;3.69;100.00;100311.47;5107444;28;20408;-90
2021/12/25 02:15:06;;;;;;;52.15;27.92;;;;;;;3.69;100.00;100311.47;5104426;28;20116;-90
2021/12/25 02:20:37;;;;;;;56.95;28.77;;;;;;;3.69;100.00;100329.03;5105933;28;20058;-90
2021/12/25 02:23:21;;;;;;;54.95;29.25;;;;;;;3.68;100.00;100319.41;5103034;28;20032;-90
2021/12/25 02:25:46;;;;;;;57.85;29.02;;;;;;;3.67;100.00;100315.91;5100795;28;20032;-90
2021/12/25 02:28:16;;;;;;;58.47;30.63;;;;;;;3.54;100.00;100305.81;5091899;28;20578;-90
2021/12/25 02:30:45;;;;;;;56.00;29.52;;;;;;;3.57;100.00;100306.56;5106295;28;20492;-90
2021/12/25 02:33:11;;;;;;;59.75;29.98;;;;;;;3.67;100.00;100325.56;5111383;28;20032;-90
2021/12/25 02:35:36;;;;;;;53.83;28.15;;;;;;;3.58;100.00;100310.06;5103791;28;20517;-90
2021/12/25 02:38:02;;;;;;;57.85;30.25;;;;;;;3.64;100.00;100323.06;5110551;28;20027;-90
2021/12/25 02:40:28;;;;;;;62.92;32.15;;;;;;;3.53;100.00;100306.72;5111752;28;20027;-90
2021/12/25 02:42:53;;;;;;;60.80;29.80;;;;;;;3.56;100.00;100320.66;5110661;28;20023;-91
2021/12/25 02:45:20;;;;;;;57.70;29.13;;;;;;;3.44;100.00;100302.59;5102861;28;20123;-90
2021/12/25 02:47:49;;;;;;;51.15;26.60;;;;;;;3.46;100.00;100312.16;5108286;28;20023;-90
2021/12/25 02:50:23;;;;;;;50.80;26.65;;;;;;;3.45;100.00;100318.31;5110930;27;20500;-90
2021/12/25 02:52:49;;;;;;;50.80;26.48;;;;;;;3.42;100.00;100328.94;5110807;28;20019;-90
2021/12/25 02:55:14;;;;;;;50.05;25.63;;;;;;;3.34;100.00;100309.03;5103834;28;20076;-90
2021/12/25 02:57:39;;;;;;;49.67;26.10;;;;;;;3.38;100.00;100310.66;5094033;28;20040;-89
2021/12/25 03:00:08;;;;;;;49.30;25.38;;;;;;;3.38;100.00;100323.81;5109632;28;20033;-90
2021/12/25 03:02:34;;;;;;;47.30;25.80;;;;;;;3.34;100.00;100322.19;5110150;28;20068;-89
2021/12/25 03:04:59;;;;;;;53.60;27.50;;;;;;;3.34;100.00;100327.44;5107643;28;20261;-90
2021/12/25 03:07:25;;;;;;;48.75;26.98;;;;;;;3.25;100.00;100328.56;5104201;28;20421;-90
2021/12/25 03:09:50;;;;;;;50.78;26.20;;;;;;;3.12;100.00;100314.06;5104378;28;20038;-90
2021/12/25 03:12:23;;;;;;;43.97;24.23;;;;;;;3.11;100.00;100328.97;5108288;28;20347;-90
2021/12/25 03:15:13;;;;;;;48.50;24.90;;;;;;;3.07;100.00;100327.34;5097229;28;20461;-89
2021/12/25 03:17:39;;;;;;;43.80;23.63;;;;;;;3.01;100.00;100340.66;5110864;28;20110;-89
2021/12/25 03:20:06;;;;;;;46.13;23.55;;;;;;;2.97;100.00;100347.78;5095282;28;20116;-89
2021/12/25 03:22:32;;;;;;;46.75;24.15;;;;;;;2.90;100.00;100348.84;5110140;28;20207;-89
2021/12/25 03:24:57;;;;;;;45.78;23.10;;;;;;;2.79;100.00;100353.50;5106722;28;20072;-89
2021/12/25 03:27:23;;;;;;;49.05;23.40;;;;;;;2.73;100.00;100344.03;5108824;28;20031;-90
2021/12/25 03:29:48;;;;;;;55.95;27.25;;;;;;;2.68;100.00;100358.22;5103309;28;20035;-89
2021/12/25 03:32:13;;;;;;;51.92;25.15;;;;;;;2.61;100.00;100365.38;5110334;28;20698;-89
2021/12/25 03:34:38;;;;;;;56.70;27.35;;;;;;;2.56;100.00;100369.03;5106623;28;20023;-89
2021/12/25 03:37:05;;;;;;;57.35;28.08;;;;;;;2.52;100.00;100363.00;5102167;28;20429;-89
2021/12/25 03:39:30;;;;;;;52.50;26.38;;;;;;;2.45;100.00;100351.75;5091141;28;20028;-89
2021/12/25 03:41:58;;;;;;;57.47;28.25;;;;;;;2.37;100.00;100348.47;5090325;28;20097;-89
2021/12/25 03:44:26;;;;;;;55.83;27.27;;;;;;;2.48;100.00;100362.19;5091511;28;20080;-89
2021/12/25 03:46:53;;;;;;;55.92;26.63;;;;;;;2.54;100.00;100376.94;5108929;28;20035;-90
2021/12/25 03:49:44;;;;;;;46.95;24.05;;;;;;;2.48;100.00;100377.09;5100354;28;20032;-90
2021/12/25 03:57:45;;;;;;;;;;;;;;;2.41;100.00;100379.00;5109499;28;20035;-89
2021/12/25 04:00:14;;;;;;;43.63;22.70;;;;;;;2.24;100.00;100375.94;5091266;28;20002;-90
2021/12/25 04:02:54;;;;;;;41.92;22.30;;;;;;;2.16;100.00;100362.13;5093947;28;20101;-89
2021/12/25 04:05:25;;;;;;;42.63;22.02;;;;;;;2.22;100.00;100370.75;5109037;28;20020;-89
2021/12/25 04:10:18;;;;;;;41.38;20.85;;;;;;;2.25;100.00;100383.75;5092705;28;20661;-89
2021/12/25 04:12:43;;;;;;;36.40;20.77;;;;;;;2.16;100.00;100386.63;5094448;28;20043;-89
2021/12/25 04:15:08;;;;;;;35.20;20.58;;;;;;;2.10;100.00;100386.78;5107335;28;20042;-88
2021/12/25 04:17:34;;;;;;;34.42;20.15;;;;;;;2.06;100.00;100393.00;5108578;28;20392;-88
2021/12/25 04:20:02;;;;;;;35.03;19.73;;;;;;;1.91;100.00;100375.81;5109308;28;20031;-88
2021/12/25 04:22:34;;;;;;;31.75;18.15;;;;;;;2.00;100.00;100388.72;5110008;28;20104;-88
2021/12/25 04:24:59;;;;;;;30.45;18.17;;;;;;;1.92;100.00;100385.44;5107986;28;20027;-88
2021/12/25 04:27:25;;;;;;;30.73;17.90;;;;;;;1.94;100.00;100396.75;5106732;28;20549;-87
2021/12/25 04:29:58;;;;;;;32.00;19.20;;;;;;;1.88;100.00;100391.66;5110019;28;20028;-88
2021/12/25 05:02:08;;;;;;;35.20;20.10;;;;;;;1.49;100.00;100430.09;5093628;28;20445;-87
2021/12/25 05:04:31;;;;;;;31.27;18.73;;;;;;;1.45;100.00;100431.03;5107921;28;20438;-87
2021/12/25 05:06:56;;;;;;;30.42;18.92;;;;;;;1.39;100.00;100437.28;5101584;28;20110;-87
2021/12/25 05:09:22;;;;;;;33.58;19.45;;;;;;;1.33;100.00;100432.16;5108993;28;20429;-87
2021/12/25 05:11:47;;;;;;;33.20;20.48;;;;;;;1.26;100.00;100441.03;5107666;28;20027;-87
2021/12/25 05:14:13;;;;;;;33.63;20.67;;;;;;;1.21;100.00;100451.63;5103967;28;20027;-86
2021/12/25 05:16:38;;;;;;;35.15;20.00;;;;;;;1.01;100.00;100429.28;5105762;28;20034;-87
2021/12/25 05:19:04;;;;;;;34.28;20.42;;;;;;;1.10;100.00;100455.34;5106121;28;20353;-86
2021/12/25 05:21:29;;;;;;;35.35;20.30;;;;;;;0.90;100.00;100432.97;5108887;28;20106;-86
2021/12/25 05:23:55;;;;;;;36.08;20.77;;;;;;;0.94;100.00;100445.13;5107281;28;20023;-87
2021/12/25 05:26:20;;;;;;;34.35;20.92;;;;;;;0.91;100.00;100453.03;5098232;28;20085;-86
2021/12/25 05:28:56;;;;;;;33.10;19.95;;;;;;;0.80;100.00;100446.25;5093474;28;20031;-86
2021/12/25 05:31:21;;;;;;;34.60;20.75;;;;;;;0.81;100.00;100454.09;5106187;28;20055;-86
2021/12/25 05:33:47;;;;;;;36.05;21.65;;;;;;;0.80;100.00;100459.38;5108484;28;20054;-86
2021/12/25 05:36:12;;;;;;;31.60;19.30;;;;;;;0.71;100.00;100460.34;5105167;28;20492;-86
2021/12/25 05:38:37;;;;;;;32.75;19.80;;;;;;;0.65;100.00;100457.84;5108399;28;20043;-86
2021/12/25 05:41:03;;;;;;;32.45;19.35;;;;;;;0.59;100.00;100473.69;5098218;28;20065;-87
2021/12/25 05:43:29;;;;;;;34.90;20.25;;;;;;;0.46;100.00;100455.53;5087183;28;20063;-87
2021/12/25 05:45:54;;;;;;;31.42;18.45;;;;;;;0.39;100.00;100456.50;5097456;28;20083;-87
2021/12/25 05:48:20;;;;;;;33.67;20.30;;;;;;;0.35;100.00;100449.59;5106414;28;20106;-86
2021/12/25 05:50:45;;;;;;;32.03;19.95;;;;;;;0.34;100.00;100460.09;5108397;28;20818;-86
2021/12/25 05:53:10;;;;;;;34.70;19.38;;;;;;;0.20;100.00;100458.53;5108184;28;20444;-87
2021/12/25 05:55:36;;;;;;;32.38;19.15;;;;;;;0.17;100.00;100481.28;5104105;28;20024;-86
2021/12/25 05:58:03;;;;;;;36.42;21.27;;;;;;;0.10;100.00;100475.25;5107727;28;20114;-87
2021/12/25 06:00:30;;;;;;;33.55;19.77;;;;;;;0.01;100.00;100464.06;5107677;28;20272;-87
2021/12/25 06:02:56;;;;;;;33.38;18.98;;;;;;;-0.13;100.00;100451.16;5093390;28;20513;-87
2021/12/25 06:05:23;;;;;;;32.70;19.27;;;;;;;-0.03;100.00;100481.56;5104266;28;20038;-87
2021/12/25 06:07:48;;;;;;;34.58;20.08;;;;;;;-0.11;100.00;100481.66;5088077;28;20040;-86
2021/12/25 06:10:14;;;;;;;33.70;19.63;;;;;;;-0.17;100.00;100486.94;5087692;28;20750;-86
2021/12/25 06:12:41;;;;;;;33.53;19.55;;;;;;;-0.26;100.00;100480.06;5088171;28;20456;-87
2021/12/25 06:15:09;;;;;;;33.03;19.33;;;;;;;-0.22;100.00;100499.22;5096833;28;20100;-87
2021/12/25 06:17:35;;;;;;;35.28;20.02;;;;;;;-0.21;100.00;100500.94;5086987;28;20099;-86
2021/12/25 06:20:01;;;;;;;35.55;20.10;;;;;;;-0.22;100.00;100501.84;5104326;28;20114;-87
2021/12/25 06:22:26;;;;;;;34.72;18.67;;;;;;;-0.20;100.00;100499.22;5105693;28;20472;-87
2021/12/25 06:24:51;;;;;;;32.10;18.90;;;;;;;-0.27;100.00;100487.94;5106136;28;21424;-87
2021/12/25 06:27:18;;;;;;;34.15;18.73;;;;;;;-0.19;100.00;100507.03;5087698;28;20047;-87
2021/12/25 06:29:43;;;;;;;33.00;19.08;;;;;;;-0.29;100.00;100494.97;5087315;28;20043;-87
2021/12/25 06:32:09;;;;;;;33.80;19.73;;;;;;;-0.32;100.00;100497.63;5087210;28;20028;-87
2021/12/25 06:34:35;;;;;;;34.42;20.23;;;;;;;-0.33;100.00;100512.44;5095575;28;20032;-87
2021/12/25 06:37:00;;;;;;;32.90;18.77;;;;;;;-0.30;100.00;100519.38;5088783;28;20023;-86
2021/12/25 06:39:26;;;;;;;33.78;19.35;;;;;;;-0.36;100.00;100514.22;5100509;28;20380;-86
2021/12/25 06:41:51;;;;;;;33.58;19.08;;;;;;;-0.31;100.00;100517.63;5107588;28;20028;-86
2021/12/25 06:44:17;;;;;;;32.15;18.08;;;;;;;-0.39;100.00;100502.03;5106899;28;20035;-86
2021/12/25 06:46:43;;;;;;;33.35;18.85;;;;;;;-0.38;100.00;100513.34;5094084;28;20127;-86
2021/12/25 06:49:09;;;;;;;31.88;17.98;;;;;;;-0.36;100.00;100528.16;5107443;28;20594;-86
2021/12/25 06:51:35;;;;;;;33.22;18.52;;;;;;;-0.43;100.00;100512.56;5098699;28;20039;-86
2021/12/25 06:54:02;;;;;;;32.42;18.75;;;;;;;-0.55;100.00;100497.84;5090917;28;20039;-86
2021/12/25 06:56:27;;;;;;;30.75;17.98;;;;;;;-0.44;100.00;100527.38;5092657;28;20499;-86
2021/12/25 06:58:52;;;;;;;31.20;17.35;;;;;;;-0.61;100.00;100500.56;5087140;28;20024;-86
2021/12/25 07:01:17;;;;;;;30.15;18.20;;;;;;;-0.48;100.00;100533.53;5100571;27;20058;-86
2021/12/25 07:03:43;;;;;;;33.22;17.00;;;;;;;-0.49;100.00;100530.94;5111725;28;20038;-86
2021/12/25 07:06:10;;;;;;;30.48;17.45;;;;;;;-0.51;100.00;100526.56;5108442;28;20085;-86
2021/12/25 07:08:35;;;;;;;34.00;18.05;;;;;;;-0.58;100.00;100522.31;5111694;28;20376;-85
2021/12/25 07:11:01;;;;;;;32.42;16.92;;;;;;;-0.74;100.00;100494.59;5110942;28;20103;-85
2021/12/25 07:13:26;;;;;;;28.48;16.20;;;;;;;-0.46;100.00;100543.94;5112034;28;20024;-85
2021/12/25 07:15:51;;;;;;;28.00;16.25;;;;;;;-0.47;100.00;100550.06;5107444;27;20029;-85
2021/12/25 07:18:16;;;;;;;27.70;15.82;;;;;;;-0.60;100.00;100537.13;5111124;28;20054;-85
2021/12/25 07:20:44;;;;;;;25.70;16.33;;;;;;;-0.61;100.00;100547.59;5111319;28;20490;-85
2021/12/25 07:23:10;;;;;;;26.15;15.25;;;;;;;-0.68;100.00;100541.56;5110938;28;20380;-85
2021/12/25 07:25:35;;;;;;;25.73;15.55;;;;;;;-0.84;100.00;100512.09;5107488;28;20034;-86
2021/12/25 07:28:00;;;;;;;23.95;13.95;;;;;;;-0.73;100.00;100537.25;5111214;28;20104;-85
2021/12/25 07:30:26;;;;;;;25.05;14.65;;;;;;;-0.71;100.00;100549.44;5109814;28;20054;-86
2021/12/25 07:32:51;;;;;;;29.05;16.08;;;;;;;-0.75;100.00;100555.59;5108745;27;20060;-86
2021/12/25 07:35:16;;;;;;;26.15;14.75;;;;;;;-0.74;100.00;100569.50;5105487;28;20314;-86
2021/12/25 07:37:41;;;;;;;26.02;15.63;;;;;;;-0.90;100.00;100553.97;5097911;28;20074;-86
2021/12/25 07:40:11;;;;;;;27.80;15.35;;;;;;;-0.79;100.00;100567.81;5106080;28;20085;-86
2021/12/25 07:42:36;;;;;;;27.77;15.93;;;;;;;-0.85;100.00;100564.38;5110492;28;20024;-86
2021/12/25 07:45:05;;;;;;;25.90;14.52;;;;;;;-0.78;100.00;100571.28;5106479;28;20090;-86
2021/12/25 07:47:32;;;;;;;28.20;15.38;;;;;;;-0.76;100.00;100579.97;5103613;28;20046;-86
2021/12/25 07:49:59;;;;;;;27.92;15.52;;;;;;;-0.86;100.00;100560.03;5110793;27;20159;-86
2021/12/25 07:52:25;;;;;;;24.60;14.65;;;;;;;-0.76;100.00;100574.75;5108343;28;20024;-86
2021/12/25 07:54:51;;;;;;;22.42;14.55;;;;;;;-0.75;100.00;100576.50;5107251;28;20463;-86
2021/12/25 07:57:16;;;;;;;22.67;14.50;;;;;;;-0.79;100.00;100569.56;5107446;28;20111;-86
2021/12/25 07:59:41;;;;;;;23.70;14.38;;;;;;;-0.83;100.00;100563.50;5105320;28;20464;-86
2021/12/25 08:02:08;;;;;;;22.00;14.07;;;;;;;-0.87;100.00;100571.38;5105246;28;20034;-86
2021/12/25 08:04:33;;;;;;;22.05;14.23;;;;;;;-0.97;100.00;100557.50;5107930;28;20028;-87
2021/12/25 08:06:58;;;;;;;25.27;14.27;;;;;;;-0.98;100.00;100555.78;5098945;28;20441;-86
2021/12/25 08:09:29;;;;;;;25.15;14.45;;;;;;;-0.86;100.00;100588.78;5104777;28;20028;-86
2021/12/25 08:12:00;;;;;;;21.45;13.27;;;;;;;-1.01;100.00;100574.94;5107086;28;20752;-87
2021/12/25 08:14:27;;;;;;;23.67;14.43;;;;;;;-0.90;100.00;100593.16;5099941;28;20484;-86
2021/12/25 08:16:57;;;;;;;22.08;13.93;;;;;;;-1.14;100.00;100552.41;5107255;28;20056;-86
2021/12/25 08:19:23;;;;;;;22.65;13.60;;;;;;;-1.00;100.00;100575.84;5108043;28;20026;-85
2021/12/25 08:21:49;;;;;;;22.85;14.50;;;;;;;-0.93;100.00;100587.94;5098863;27;20092;-86
2021/12/25 08:24:15;;;;;;;24.40;14.98;;;;;;;-0.89;100.00;100596.63;5107221;28;20077;-86
2021/12/25 08:26:41;;;;;;;23.65;13.38;;;;;;;-1.08;100.00;100565.44;5105918;28;20035;-85
2021/12/25 08:29:07;;;;;;;23.38;14.07;;;;;;;-0.91;100.00;100587.94;5096696;28;20052;-85
2021/12/25 08:31:32;;;;;;;21.27;13.27;;;;;;;-0.84;100.00;100607.91;5103247;28;20114;-85
2021/12/25 08:33:57;;;;;;;21.70;13.88;;;;;;;-0.85;100.00;100611.41;5090110;28;20077;-85
2021/12/25 08:36:23;;;;;;;23.80;14.30;;;;;;;-0.82;100.00;100617.47;5091575;28;20025;-81
2021/12/25 08:38:48;;;;;;;20.95;13.45;;;;;;;-0.84;100.00;100614.00;5103367;28;20385;-86
2021/12/25 08:41:14;;;;;;;21.23;13.52;;;;;;;-0.85;100.00;100621.84;5108959;28;20242;-85
2021/12/25 08:43:46;;;;;;;20.50;12.88;;;;;;;-0.83;100.00;100626.19;5109537;28;20031;-85
2021/12/25 08:46:17;;;;;;;22.92;14.07;;;;;;;-0.88;100.00;100630.59;5105483;28;20134;-85
2021/12/25 08:48:43;;;;;;;21.65;13.27;;;;;;;-0.94;100.00;100627.16;5109182;28;20112;-85
2021/12/25 08:51:09;;;;;;;21.55;12.80;;;;;;;-0.92;100.00;100635.84;5108462;28;20027;-85
2021/12/25 08:53:34;;;;;;;20.27;12.85;;;;;;;-0.95;100.00;100635.88;5107409;27;20035;-84
2021/12/25 08:56:00;;;;;;;19.98;13.60;;;;;;;-0.95;100.00;100638.50;5095505;28;20073;-85
2021/12/25 08:58:27;;;;;;;18.58;11.77;;;;;;;-0.95;100.00;100644.59;5094568;28;20028;-84
2021/12/25 09:00:56;;;;;;;19.58;13.20;;;;;;;-0.95;100.00;100641.97;5107525;28;20028;-85
2021/12/25 09:03:26;;;;;;;22.73;13.30;;;;;;;-0.98;100.00;100633.28;5107990;28;20568;-85
2021/12/25 09:05:54;;;;;;;22.23;13.27;;;;;;;-0.96;100.00;100641.97;5097083;28;20444;-84
2021/12/25 09:08:19;;;;;;;19.27;12.70;;;;;;;-1.06;100.00;100631.59;5099994;28;20054;-84
2021/12/25 09:10:44;;;;;;;18.30;12.45;;;;;;;-1.02;100.00;100651.59;5108258;28;20059;-84
2021/12/25 09:13:10;;;;;;;20.35;12.93;;;;;;;-1.05;100.00;100645.50;5107377;28;20042;-85
2021/12/25 09:15:35;;;;;;;20.17;12.43;;;;;;;-1.06;100.00;100647.25;5106033;28;20035;-84
2021/12/25 09:18:01;;;;;;;19.92;13.38;;;;;;;-1.01;100.00;100660.28;5106752;28;20042;-85
2021/12/25 09:20:26;;;;;;;21.08;12.65;;;;;;;-1.06;100.00;100651.63;5102762;28;20035;-84
2021/12/25 09:22:51;;;;;;;20.05;12.73;;;;;;;-1.07;100.00;100655.13;5093664;28;20031;-84
2021/12/25 09:25:17;;;;;;;21.83;12.57;;;;;;;-1.08;100.00;100667.31;5103311;28;20024;-84
2021/12/25 09:27:43;;;;;;;22.35;13.20;;;;;;;-1.07;100.00;100647.28;5106704;28;20381;-84
2021/12/25 09:30:09;;;;;;;19.33;13.02;;;;;;;-1.07;100.00;100658.59;5107168;28;20485;-84
2021/12/25 09:32:35;;;;;;;21.75;14.20;;;;;;;-1.10;100.00;100647.28;5103763;28;20032;-84
2021/12/25 09:35:00;;;;;;;20.20;13.52;;;;;;;-1.00;100.00;100662.03;5105183;28;20027;-85
2021/12/25 09:37:30;;;;;;;20.50;12.18;;;;;;;-1.01;100.00;100642.00;5105388;28;20491;-86
2021/12/25 09:39:56;;;;;;;21.52;12.73;;;;;;;-0.93;100.00;100661.09;5105212;28;20019;-84
2021/12/25 09:42:24;;;;;;;18.55;12.63;;;;;;;-1.07;100.00;100634.22;5107170;28;20034;-86
2021/12/25 09:44:50;;;;;;;17.92;12.85;;;;;;;-0.97;100.00;100656.78;5108176;28;20044;-85
2021/12/25 09:47:15;;;;;;;18.05;12.52;;;;;;;-0.97;100.00;100658.53;5106188;28;20038;-86
2021/12/25 09:49:40;;;;;;;18.38;12.18;;;;;;;-1.13;100.00;100629.91;5098674;28;20020;-84
2021/12/25 09:52:06;;;;;;;16.52;11.63;;;;;;;-0.97;100.00;100674.19;5092095;28;20377;-86
2021/12/25 09:54:32;;;;;;;19.45;12.75;;;;;;;-0.98;100.00;100662.88;5097878;28;20036;-85
2021/12/25 09:56:58;;;;;;;20.00;12.73;;;;;;;-1.02;100.00;100669.00;5095931;28;20031;-86
2021/12/25 09:59:24;;;;;;;19.13;12.70;;;;;;;-0.99;100.00;100675.97;5096271;28;20080;-86
2021/12/25 10:01:53;;;;;;;18.00;11.38;;;;;;;-0.92;100.00;100688.09;5096609;28;20038;-86
2021/12/25 10:04:33;;;;;;;19.33;12.73;;;;;;;-0.95;100.00;100694.22;5093382;28;20036;-86
2021/12/25 10:07:12;;;;;;;17.17;11.73;;;;;;;-1.02;100.00;100680.31;5093730;28;20051;-85
2021/12/25 10:09:37;;;;;;;19.75;11.90;;;;;;;-0.96;100.00;100699.44;5094850;28;20588;-85
2021/12/25 10:12:09;;;;;;;21.50;11.43;;;;;;;-0.93;100.00;100702.91;5094467;28;20046;-86
2021/12/25 10:14:39;;;;;;;18.13;11.73;;;;;;;-0.92;100.00;100703.75;5094761;28;20032;-85
2021/12/25 10:17:25;;;;;;;17.17;11.30;;;;;;;-0.88;100.00;100710.72;5097746;28;20512;-85
2021/12/25 10:20:08;;;;;;;15.95;10.88;;;;;;;-0.90;100.00;100708.13;5097305;28;20027;-84
2021/12/25 10:22:52;;;;;;;17.10;11.80;;;;;;;-0.88;100.00;100724.66;5097479;28;20035;-88
2021/12/25 10:25:18;;;;;;;15.40;10.75;;;;;;;-0.95;100.00;100717.72;5099939;28;20026;-84
2021/12/25 10:27:54;;;;;;;14.65;10.90;;;;;;;-0.98;99.79;100719.50;5107027;28;20404;-86
2021/12/25 10:30:20;;;;;;;17.33;10.60;;;;;;;-1.09;99.90;100707.34;5104377;28;20449;-85
2021/12/25 10:32:47;;;;;;;15.73;11.02;;;;;;;-1.04;99.99;100702.97;5107516;28;20388;-84
2021/12/25 10:35:25;;;;;;;16.95;11.48;;;;;;;-0.96;100.00;100712.50;5107627;28;20031;-84
2021/12/25 10:37:51;;;;;;;18.80;11.60;;;;;;;-0.96;100.00;100705.56;5106497;28;20035;-85
2021/12/25 10:40:25;;;;;;;18.13;10.90;;;;;;;-0.88;99.80;100710.72;5104331;27;20416;-84
2021/12/25 10:42:53;;;;;;;18.05;11.15;;;;;;;-0.97;99.17;100706.41;5108122;28;20115;-86
2021/12/25 10:45:19;;;;;;;17.42;12.50;;;;;;;-0.99;99.86;100708.19;5099756;28;20058;-86
2021/12/25 10:47:45;;;;;;;15.25;10.68;;;;;;;-1.12;99.03;100691.72;5106956;28;20028;-86
2021/12/25 10:50:13;;;;;;;17.08;11.40;;;;;;;-1.06;99.28;100702.09;5105760;28;20016;-85
2021/12/25 10:52:44;;;;;;;14.48;9.55;;;;;;;-1.08;98.74;100701.25;5109540;28;20036;-85
2021/12/25 10:55:16;;;;;;;15.38;10.18;;;;;;;-1.10;99.29;100695.16;5111008;28;20515;-85
2021/12/25 10:57:45;;;;;;;14.68;9.65;;;;;;;-1.09;99.42;100696.88;5109108;27;20119;-81
2021/12/25 11:00:21;;;;;;;12.43;8.93;;;;;;;-1.10;99.38;100697.78;5111643;28;20069;-82
2021/12/25 11:02:51;;;;;;;13.20;9.82;;;;;;;-1.13;99.50;100689.97;5105483;28;20054;-82
2021/12/25 11:05:30;;;;;;;14.68;9.20;;;;;;;-1.09;98.62;100688.19;5096842;28;20023;-81
2021/12/25 11:08:12;;;;;;;13.20;9.32;;;;;;;-1.15;99.02;100681.28;5103956;28;20815;-83
2021/12/25 11:10:45;;;;;;;15.43;9.23;;;;;;;-1.19;98.47;100686.53;5097733;27;20034;-90
2021/12/25 11:13:21;;;;;;;13.10;9.13;;;;;;;-1.20;98.15;100690.03;5102245;27;20077;-81
2021/12/25 11:15:47;;;;;;;11.88;9.10;;;;;;;-1.24;96.21;100688.28;5096869;28;20564;-82
2021/12/25 11:18:14;;;;;;;11.48;8.68;;;;;;;-1.27;97.33;100690.03;5107946;28;20032;-83
2021/12/25 11:20:42;;;;;;;11.32;8.60;;;;;;;-1.24;96.81;100694.38;5091941;28;20494;-82
2021/12/25 11:23:11;;;;;;;12.10;9.13;;;;;;;-1.20;97.07;100705.69;5110498;28;20077;-79
2021/12/25 11:25:38;;;;;;;11.85;8.10;;;;;;;-1.20;97.09;100701.31;5107462;28;20396;-82
2021/12/25 11:28:07;;;;;;;11.10;8.35;;;;;;;-1.15;97.17;100717.84;5109241;28;20484;-81
2021/12/25 11:30:35;;;;;;;11.13;8.73;;;;;;;-1.10;96.74;100720.41;5098794;28;20031;-82
2021/12/25 11:33:01;;;;;;;10.40;7.93;;;;;;;-1.07;97.75;100718.66;5103041;28;20020;-82
2021/12/25 11:35:26;;;;;;;10.43;8.05;;;;;;;-1.14;96.72;100714.34;5093241;28;20143;-82
2021/12/25 11:37:55;;;;;;;12.60;7.95;;;;;;;-1.17;96.63;100718.72;5106587;28;20559;-82
2021/12/25 11:40:24;;;;;;;11.48;8.23;;;;;;;-1.24;97.22;100704.81;5094630;28;20452;-80
2021/12/25 11:42:54;;;;;;;11.85;8.02;;;;;;;-1.14;97.56;100708.25;5100099;28;20020;-81
2021/12/25 11:45:24;;;;;;;12.32;8.52;;;;;;;-1.14;96.79;100703.03;5104408;28;20168;-81
2021/12/25 11:47:51;;;;;;;10.00;7.68;;;;;;;-1.12;96.62;100701.28;5091787;28;20027;-81
2021/12/25 11:50:31;;;;;;;8.73;6.40;;;;;;;-1.15;96.60;100683.88;5107173;28;20024;-81
2021/12/25 11:56:14;;;;;;;9.93;5.88;;;;;;;-0.90;95.54;100684.59;5098775;28;20281;-83
2021/12/25 11:58:50;;;;;;;7.80;5.28;;;;;;;-0.86;94.48;100683.69;5106665;28;20059;-84
2021/12/25 12:01:23;;;;;;;10.23;5.82;;;;;;;-0.85;95.35;100690.66;5095783;28;20073;-82
2021/12/25 12:04:10;;;;;;;8.47;5.93;;;;;;;-0.75;95.67;100691.47;5090646;28;20035;-83
2021/12/25 12:06:44;;;;;;;5.55;4.63;;;;;;;-0.72;93.78;100691.44;5107711;28;20661;-81
2021/12/25 12:09:20;;;;;;;5.05;3.90;;;;;;;-0.71;92.71;100676.63;5101078;28;20035;-81
2021/12/25 12:11:51;;;;;;;5.43;4.10;;;;;;;-0.69;93.38;100680.97;5110554;28;20096;-83
2021/12/25 12:14:21;;;;;;;5.18;4.05;;;;;;;-0.64;92.80;100689.63;5107706;28;20035;-80
2021/12/25 12:16:50;;;;;;;5.18;4.10;;;;;;;-0.74;92.77;100687.97;5108248;27;20029;-80
2021/12/25 12:19:31;;;;;;;5.88;4.05;;;;;;;-0.71;92.87;100700.13;5109725;28;20016;-80
2021/12/25 12:21:57;;;;;;;4.78;4.18;;;;;;;-0.73;93.97;100688.84;5110166;28;20403;-80
2021/12/25 12:27:03;;;;;;;5.50;4.30;;;;;;;-0.64;93.66;100684.41;5104069;28;20373;-82